createdAt,value
2018-06-01T00:01:20.175Z,15.30
2018-06-01T00:03:48.434Z,15.70
2018-06-01T00:06:16.002Z,15.20
2018-06-01T00:08:43.531Z,15.27
2018-06-01T00:11:11.041Z,15.93
2018-06-01T00:13:39.298Z,15.87
2018-06-01T00:16:07.554Z,14.73
2018-06-01T00:18:35.044Z,16.00
2018-06-01T00:21:03.284Z,16.27
2018-06-01T00:23:30.799Z,15.37
2018-06-01T00:25:58.277Z,16.20
2018-06-01T00:28:25.799Z,16.17
2018-06-01T00:30:53.290Z,17.33
2018-06-01T00:33:20.784Z,15.37
2018-06-01T00:35:48.273Z,16.47
2018-06-01T00:38:15.769Z,16.10
2018-06-01T00:40:43.256Z,17.37
2018-06-01T00:43:11.504Z,16.93
2018-06-01T00:45:39.024Z,17.80
2018-06-01T00:48:06.539Z,17.03
2018-06-01T00:50:34.073Z,17.00
2018-06-01T00:53:01.558Z,17.27
2018-06-01T00:55:29.857Z,18.40
2018-06-01T00:57:57.345Z,18.00
2018-06-01T01:00:24.845Z,17.80
2018-06-01T01:02:53.085Z,17.43
2018-06-01T01:05:20.578Z,17.73
2018-06-01T01:07:48.826Z,15.60
2018-06-01T01:10:16.307Z,18.17
2018-06-01T01:12:43.843Z,19.37
2018-06-01T01:15:11.348Z,18.63
2018-06-01T01:17:39.618Z,18.20
2018-06-01T01:20:07.093Z,18.53
2018-06-01T01:22:34.607Z,18.37
2018-06-01T01:25:02.852Z,18.27
2018-06-01T01:27:30.378Z,17.73
2018-06-01T01:29:58.485Z,17.87
2018-06-01T01:32:25.992Z,18.97
2018-06-01T01:34:54.252Z,18.83
2018-06-01T01:37:32.622Z,17.73
2018-06-01T01:40:00.117Z,18.50
2018-06-01T01:42:28.773Z,18.80
2018-06-01T01:44:56.294Z,18.20
2018-06-01T01:47:23.772Z,18.83
2018-06-01T01:49:54.171Z,19.10
2018-06-01T01:52:21.650Z,17.67
2018-06-01T01:54:49.173Z,17.10
2018-06-01T01:57:16.661Z,17.87
2018-06-01T01:59:44.161Z,17.83
2018-06-01T02:02:12.404Z,19.37
2018-06-01T02:04:40.127Z,19.87
2018-06-01T02:07:07.610Z,20.13
2018-06-01T02:09:35.109Z,21.07
2018-06-01T02:12:03.383Z,20.73
2018-06-01T02:14:31.625Z,18.67
2018-06-01T02:16:59.127Z,20.17
2018-06-01T02:19:27.381Z,21.70
2018-06-01T02:21:54.879Z,21.67
2018-06-01T02:24:22.443Z,21.13
2018-06-01T02:26:50.001Z,22.60
2018-06-01T02:29:17.490Z,22.60
2018-06-01T02:31:44.985Z,22.93
2018-06-01T02:34:13.247Z,22.20
2018-06-01T02:36:40.757Z,22.77
2018-06-01T02:39:08.300Z,23.27
2018-06-01T02:41:35.772Z,23.57
2018-06-01T02:44:03.317Z,23.57
2018-06-01T02:46:30.800Z,23.60
2018-06-01T02:48:58.302Z,24.17
2018-06-01T02:51:26.549Z,24.03
2018-06-01T02:53:55.613Z,24.03
2018-06-01T02:56:23.133Z,23.57
2018-06-01T02:58:50.625Z,24.53
2018-06-01T03:01:18.121Z,24.00
2018-06-01T03:03:45.649Z,25.60
2018-06-01T03:06:13.132Z,26.30
2018-06-01T03:08:40.638Z,26.50
2018-06-01T03:11:08.133Z,26.87
2018-06-01T03:13:35.614Z,27.73
2018-06-01T03:16:03.873Z,28.57
2018-06-01T03:18:31.355Z,28.60
2018-06-01T03:20:59.610Z,28.87
2018-06-01T03:23:27.113Z,29.93
2018-06-01T03:25:54.589Z,30.03
2018-06-01T03:28:22.061Z,31.10
2018-06-01T03:30:49.553Z,30.73
2018-06-01T03:33:17.802Z,31.73
2018-06-01T03:35:45.306Z,32.23
2018-06-01T03:38:12.809Z,33.57
2018-06-01T03:40:40.345Z,35.33
2018-06-01T03:43:07.825Z,37.20
2018-06-01T03:45:35.336Z,36.47
2018-06-01T03:48:02.826Z,39.00
2018-06-01T03:50:30.309Z,42.90
2018-06-01T03:52:57.830Z,40.83
2018-06-01T03:55:25.325Z,44.43
2018-06-01T03:57:52.828Z,45.53
2018-06-01T04:00:20.303Z,49.87
2018-06-01T04:02:47.798Z,47.60
2018-06-01T04:05:16.059Z,51.87
2018-06-01T04:07:44.320Z,43.53
2018-06-01T04:10:11.813Z,39.20
2018-06-01T04:12:40.057Z,38.97
2018-06-01T04:15:07.600Z,41.13
2018-06-01T04:17:35.117Z,42.07
2018-06-01T04:20:02.589Z,42.87
2018-06-01T04:22:30.113Z,37.40
2018-06-01T04:24:58.357Z,18.87
2018-06-01T04:27:25.878Z,11.10
2018-06-01T04:29:53.353Z,7.13
2018-06-01T04:32:21.045Z,6.20
2018-06-01T04:34:48.521Z,5.50
2018-06-01T04:37:16.033Z,6.13
2018-06-01T04:39:43.517Z,5.27
2018-06-01T04:42:11.002Z,5.13
2018-06-01T04:44:38.589Z,6.17
2018-06-01T04:47:06.069Z,6.67
2018-06-01T04:49:33.557Z,6.00
2018-06-01T04:52:01.828Z,6.37
2018-06-01T04:54:30.069Z,6.53
2018-06-01T04:56:57.557Z,6.40
2018-06-01T04:59:25.801Z,6.70
2018-06-01T05:01:53.297Z,6.97
2018-06-01T05:04:20.804Z,7.70
2018-06-01T05:06:48.308Z,7.43
2018-06-01T05:09:16.552Z,7.97
2018-06-01T05:11:44.028Z,7.07
2018-06-01T05:14:12.295Z,5.83
2018-06-01T05:16:39.787Z,5.63
2018-06-01T05:19:07.302Z,4.93
2018-06-01T05:21:34.777Z,5.27
2018-06-01T05:24:03.034Z,5.33
2018-06-01T05:26:30.525Z,5.40
2018-06-01T05:28:58.819Z,4.63
2018-06-01T05:31:26.321Z,5.50
2018-06-01T05:33:53.789Z,5.87
2018-06-01T05:36:21.300Z,5.30
2018-06-01T05:38:48.813Z,5.47
2018-06-01T05:41:17.089Z,5.53
2018-06-01T05:43:44.584Z,5.37
2018-06-01T05:46:12.105Z,5.63
2018-06-01T05:48:40.338Z,6.17
2018-06-01T05:51:07.839Z,5.87
2018-06-01T05:53:36.077Z,6.00
2018-06-01T05:56:03.700Z,6.13
2018-06-01T05:58:31.179Z,6.07
2018-06-01T06:00:58.660Z,7.17
2018-06-01T06:03:26.929Z,9.33
2018-06-01T06:05:54.420Z,15.17
2018-06-01T06:08:22.677Z,15.53
2018-06-01T06:10:50.170Z,14.13
2018-06-01T06:13:17.787Z,16.37
2018-06-01T06:15:45.298Z,18.97
2018-06-01T06:18:12.782Z,24.87
2018-06-01T06:20:40.277Z,24.73
2018-06-01T06:23:08.535Z,20.03
2018-06-01T06:25:36.056Z,20.97
2018-06-01T06:28:03.534Z,16.83
2018-06-01T06:30:31.022Z,15.73
2018-06-01T06:32:59.279Z,15.97
2018-06-01T06:35:26.888Z,17.07
2018-06-01T06:37:54.438Z,15.90
2018-06-01T06:40:21.933Z,16.73
2018-06-01T06:42:49.409Z,14.93
2018-06-01T06:45:17.021Z,18.47
2018-06-01T06:47:44.551Z,16.77
2018-06-01T06:50:12.050Z,19.83
2018-06-01T06:52:39.524Z,20.00
2018-06-01T06:55:07.811Z,21.37
2018-06-01T06:57:36.078Z,20.53
2018-06-01T07:00:03.557Z,20.13
2018-06-01T07:02:31.829Z,20.37
2018-06-01T07:05:00.067Z,20.33
2018-06-01T07:07:27.571Z,18.83
2018-06-01T07:09:55.825Z,17.47
2018-06-01T07:12:23.340Z,16.37
2018-06-01T07:14:50.817Z,18.30
2018-06-01T07:17:18.309Z,16.97
2018-06-01T07:19:46.574Z,18.47
2018-06-01T07:22:14.201Z,18.57
2018-06-01T07:24:41.717Z,16.57
2018-06-01T07:27:10.934Z,16.57
2018-06-01T07:29:38.460Z,18.33
2018-06-01T07:32:06.845Z,17.43
2018-06-01T07:34:34.600Z,13.37
2018-06-01T07:37:02.140Z,13.80
2018-06-01T07:39:30.493Z,13.43
2018-06-01T07:41:58.189Z,11.60
2018-06-01T07:44:26.446Z,12.03
2018-06-01T07:46:54.716Z,10.47
2018-06-01T07:49:22.208Z,11.27
2018-06-01T07:51:49.698Z,11.07
2018-06-01T07:54:17.185Z,9.53
2018-06-01T07:56:44.737Z,9.20
2018-06-01T07:59:12.221Z,7.90
2018-06-01T08:01:40.527Z,7.90
2018-06-01T08:04:08.005Z,7.57
2018-06-01T08:06:35.520Z,7.53
2018-06-01T08:09:03.754Z,7.97
2018-06-01T08:11:31.240Z,7.73
2018-06-01T08:13:59.480Z,8.00
2018-06-01T08:16:26.970Z,8.00
2018-06-01T08:18:54.470Z,8.07
2018-06-01T08:21:21.957Z,7.90
2018-06-01T08:23:49.460Z,7.17
2018-06-01T08:26:17.433Z,6.57
2018-06-01T08:28:44.933Z,5.70
2018-06-01T08:31:12.408Z,5.07
2018-06-01T08:33:40.664Z,4.73
2018-06-01T08:36:08.150Z,4.17
2018-06-01T08:38:36.430Z,4.17
2018-06-01T08:41:03.983Z,3.43
2018-06-01T08:43:31.449Z,4.27
2018-06-01T08:45:58.951Z,3.70
2018-06-01T08:48:26.462Z,4.30
2018-06-01T08:50:53.977Z,4.23
2018-06-01T08:53:22.501Z,4.50
2018-06-01T08:55:49.980Z,4.00
2018-06-01T08:58:17.463Z,5.30
2018-06-01T09:00:44.943Z,4.40
2018-06-01T09:03:12.429Z,4.23
2018-06-01T09:05:40.889Z,3.80
2018-06-01T09:08:09.122Z,4.17
2018-06-01T09:10:36.633Z,4.30
2018-06-01T09:13:04.119Z,4.03
2018-06-01T09:15:31.626Z,3.80
2018-06-01T09:18:00.069Z,4.13
2018-06-01T09:20:27.601Z,4.23
2018-06-01T09:22:55.106Z,4.50
2018-06-01T09:25:22.609Z,4.90
2018-06-01T09:27:50.081Z,4.23
2018-06-01T09:30:17.575Z,4.73
2018-06-01T09:32:45.086Z,5.00
2018-06-01T09:35:12.575Z,5.27
2018-06-01T09:37:40.065Z,5.27
2018-06-01T09:40:08.309Z,5.40
2018-06-01T09:42:35.828Z,4.93
2018-06-01T09:45:03.309Z,5.17
2018-06-01T09:47:30.880Z,5.77
2018-06-01T09:49:58.355Z,5.83
2018-06-01T09:52:25.959Z,6.13
2018-06-01T09:54:53.430Z,7.80
2018-06-01T09:57:20.949Z,6.77
2018-06-01T09:59:49.190Z,6.47
2018-06-01T10:02:16.661Z,8.23
2018-06-01T10:04:44.912Z,8.17
2018-06-01T10:07:12.381Z,7.97
2018-06-01T10:09:39.889Z,10.17
2018-06-01T10:12:07.365Z,9.70
2018-06-01T10:14:34.889Z,10.60
2018-06-01T10:17:02.365Z,11.83
2018-06-01T10:19:29.880Z,11.77
2018-06-01T10:21:58.130Z,12.80
2018-06-01T10:24:25.698Z,13.03
2018-06-01T10:26:53.194Z,12.47
2018-06-01T10:29:20.676Z,13.33
2018-06-01T10:31:48.179Z,14.60
2018-06-01T10:34:15.677Z,14.53
2018-06-01T10:36:43.167Z,12.93
2018-06-01T10:39:10.759Z,14.57
2018-06-01T10:41:39.034Z,15.30
2018-06-01T10:44:07.288Z,15.20
2018-06-01T10:46:34.852Z,16.60
2018-06-01T10:49:02.329Z,17.07
2018-06-01T10:51:30.624Z,17.90
2018-06-01T10:53:58.109Z,17.63
2018-06-01T10:56:25.909Z,17.13
2018-06-01T10:58:54.165Z,18.70
2018-06-01T11:01:21.690Z,16.33
2018-06-01T11:03:49.189Z,15.80
2018-06-01T11:06:16.675Z,14.13
2018-06-01T11:08:44.956Z,15.57
2018-06-01T11:11:12.458Z,14.87
2018-06-01T11:13:40.043Z,15.30
2018-06-01T11:16:07.494Z,13.97
2018-06-01T11:18:34.998Z,15.43
2018-06-01T11:21:02.510Z,15.53
2018-06-01T11:23:29.982Z,17.23
2018-06-01T11:25:58.229Z,16.17
2018-06-01T11:28:25.725Z,14.23
2018-06-01T11:30:53.234Z,15.80
2018-06-01T11:33:20.728Z,14.13
2018-06-01T11:35:48.991Z,12.57
2018-06-01T11:38:17.259Z,12.83
2018-06-01T11:40:44.762Z,12.10
2018-06-01T11:43:12.261Z,10.13
2018-06-01T11:45:39.761Z,10.43
2018-06-01T11:48:07.237Z,9.27
2018-06-01T11:50:34.730Z,9.67
2018-06-01T11:53:02.213Z,9.73
2018-06-01T11:55:30.470Z,8.97
2018-06-01T11:57:58.749Z,10.07
2018-06-01T12:00:27.055Z,10.80
2018-06-01T12:02:54.548Z,11.93
2018-06-01T12:05:22.065Z,9.83
2018-06-01T12:07:49.585Z,10.50
2018-06-01T12:10:17.065Z,11.30
2018-06-01T12:12:45.322Z,9.40
2018-06-01T12:15:12.792Z,9.10
2018-06-01T12:17:41.153Z,8.90
2018-06-01T12:20:08.586Z,7.63
2018-06-01T12:22:36.106Z,7.40
2018-06-01T12:25:03.598Z,8.07
2018-06-01T12:27:31.072Z,8.70
2018-06-01T12:29:58.593Z,9.03
2018-06-01T12:32:26.071Z,8.87
2018-06-01T12:34:54.563Z,7.63
2018-06-01T12:37:22.065Z,8.63
2018-06-01T12:39:49.565Z,9.13
2018-06-01T12:42:17.098Z,8.97
2018-06-01T12:44:44.597Z,9.00
2018-06-01T12:47:12.212Z,8.00
2018-06-01T12:49:39.724Z,8.30
2018-06-01T12:52:07.232Z,8.60
2018-06-01T12:54:34.718Z,9.03
2018-06-01T12:57:03.009Z,9.57
2018-06-01T12:59:30.515Z,9.67
2018-06-01T13:01:58.011Z,10.00
2018-06-01T13:04:25.510Z,9.90
2018-06-01T13:06:53.781Z,10.73
2018-06-01T13:09:21.285Z,9.83
2018-06-01T13:11:48.797Z,10.07
2018-06-01T13:14:16.273Z,10.33
2018-06-01T13:16:43.787Z,10.43
2018-06-01T13:19:11.255Z,9.40
2018-06-01T13:21:39.493Z,9.47
2018-06-01T13:24:07.004Z,8.73
2018-06-01T13:26:34.544Z,8.80
2018-06-01T13:29:02.049Z,8.03
2018-06-01T13:31:29.545Z,8.33
2018-06-01T13:33:57.778Z,6.43
2018-06-01T13:36:25.273Z,7.53
2018-06-01T13:38:52.778Z,6.50
2018-06-01T13:41:20.245Z,6.83
2018-06-01T13:43:47.728Z,7.80
2018-06-01T13:46:15.194Z,7.03
2018-06-01T13:48:43.467Z,8.07
2018-06-01T13:51:10.941Z,8.57
2018-06-01T13:53:39.193Z,7.33
2018-06-01T13:56:06.701Z,7.23
2018-06-01T13:58:34.184Z,7.40
2018-06-01T14:01:01.678Z,6.93
2018-06-01T14:03:29.928Z,7.30
2018-06-01T14:05:57.429Z,6.23
2018-06-01T14:08:24.943Z,7.20
2018-06-01T14:10:52.631Z,6.57
2018-06-01T14:13:20.906Z,7.73
2018-06-01T14:15:49.174Z,7.33
2018-06-01T14:18:17.439Z,8.63
2018-06-01T14:20:44.942Z,9.40
2018-06-01T14:23:12.420Z,10.00
2018-06-01T14:28:14.549Z,9.93
2018-06-01T14:30:42.834Z,9.30
2018-06-01T14:33:11.093Z,7.03
2018-06-01T14:35:38.591Z,7.00
2018-06-01T14:38:06.077Z,7.03
2018-06-01T14:40:33.572Z,6.70
2018-06-01T14:43:01.828Z,5.83
2018-06-01T14:45:29.318Z,5.57
2018-06-01T14:47:56.809Z,6.03
2018-06-01T14:50:24.367Z,6.13
2018-06-01T14:52:51.985Z,6.60
2018-06-01T14:55:20.294Z,6.70
2018-06-01T14:57:47.792Z,6.80
2018-06-01T15:00:15.297Z,7.37
2018-06-01T15:02:42.777Z,7.50
2018-06-01T15:05:10.278Z,9.30
2018-06-01T15:07:38.510Z,9.73
2018-06-01T15:10:06.333Z,10.10
2018-06-01T15:12:33.818Z,10.90
2018-06-01T15:15:01.531Z,11.30
2018-06-01T15:17:29.821Z,10.97
2018-06-01T15:19:58.058Z,11.57
2018-06-01T15:22:25.573Z,10.13
2018-06-01T15:24:53.083Z,10.17
2018-06-01T15:27:21.034Z,10.67
2018-06-01T15:29:48.505Z,11.17
2018-06-01T15:32:16.008Z,11.17
2018-06-01T15:34:43.496Z,11.50
2018-06-01T15:37:10.985Z,11.87
2018-06-01T15:39:39.977Z,11.73
2018-06-01T15:42:07.493Z,12.57
2018-06-01T15:44:34.980Z,13.90
2018-06-01T15:47:02.480Z,13.73
2018-06-01T15:49:30.065Z,13.10
2018-06-01T15:51:57.568Z,15.07
2018-06-01T15:54:25.078Z,14.37
2018-06-01T15:56:52.576Z,15.33
2018-06-01T15:59:20.457Z,14.97
2018-06-01T16:01:47.953Z,14.67
2018-06-01T16:04:15.472Z,15.10
2018-06-01T16:06:43.730Z,13.97
2018-06-01T16:09:11.604Z,14.70
2018-06-01T16:11:39.073Z,15.83
2018-06-01T16:14:06.558Z,14.93
2018-06-01T16:16:34.065Z,15.43
2018-06-01T16:19:01.605Z,14.57
2018-06-01T16:21:29.171Z,13.87
2018-06-01T16:23:56.645Z,14.90
2018-06-01T16:26:24.931Z,14.03
2018-06-01T16:28:53.201Z,13.83
2018-06-01T16:31:21.530Z,15.50
2018-06-01T16:33:48.969Z,14.40
2018-06-01T16:36:16.480Z,14.93
2018-06-01T16:38:44.034Z,14.37
2018-06-01T16:41:11.512Z,13.77
2018-06-01T16:43:39.021Z,15.00
2018-06-01T16:46:06.553Z,14.53
2018-06-01T16:48:34.085Z,15.27
2018-06-01T16:51:02.326Z,15.80
2018-06-01T16:53:29.838Z,16.80
2018-06-01T16:55:57.317Z,16.27
2018-06-01T16:58:24.812Z,17.90
2018-06-01T17:00:53.081Z,18.13
2018-06-01T17:03:20.562Z,16.20
2018-06-01T17:05:48.050Z,18.40
2018-06-01T17:08:15.545Z,18.33
2018-06-01T17:10:43.101Z,19.57
2018-06-01T17:13:10.611Z,19.73
2018-06-01T17:15:38.113Z,19.80
2018-06-01T17:18:05.621Z,21.83
2018-06-01T17:20:33.105Z,21.00
2018-06-01T17:23:00.606Z,23.13
2018-06-01T17:25:28.849Z,22.03
2018-06-01T17:27:56.368Z,22.93
2018-06-01T17:30:23.883Z,21.43
2018-06-01T17:32:52.167Z,22.83
2018-06-01T17:35:20.407Z,22.80
2018-06-01T17:37:47.888Z,23.77
2018-06-01T17:40:16.153Z,23.90
2018-06-01T17:42:43.632Z,23.77
2018-06-01T17:45:11.891Z,23.67
2018-06-01T17:47:39.495Z,24.13
2018-06-01T17:50:07.049Z,25.60
2018-06-01T17:52:34.571Z,24.80
2018-06-01T17:55:02.836Z,24.40
2018-06-01T17:57:30.385Z,24.10
2018-06-01T17:59:57.909Z,24.13
2018-06-01T18:02:26.765Z,21.40
2018-06-01T18:04:55.066Z,21.40
2018-06-01T18:07:22.577Z,19.73
2018-06-01T18:09:50.637Z,17.70
2018-06-01T18:12:18.158Z,18.57
2018-06-01T18:14:45.785Z,17.20
2018-06-01T18:17:13.256Z,17.40
2018-06-01T18:19:40.753Z,15.40
2018-06-01T18:22:08.381Z,15.83
2018-06-01T18:24:35.879Z,15.53
2018-06-01T18:27:03.365Z,16.93
2018-06-01T18:29:30.856Z,16.10
2018-06-01T18:31:58.345Z,14.50
2018-06-01T18:34:25.838Z,14.20
2018-06-01T18:36:54.106Z,14.10
2018-06-01T18:39:22.354Z,14.30
2018-06-01T18:41:49.868Z,14.27
2018-06-01T18:44:17.365Z,15.13
2018-06-01T18:46:44.867Z,15.37
2018-06-01T18:49:12.355Z,15.80
2018-06-01T18:51:40.128Z,13.40
2018-06-01T18:54:07.673Z,14.23
2018-06-01T18:56:35.178Z,15.27
2018-06-01T18:59:03.462Z,15.63
2018-06-01T19:01:31.716Z,15.33
2018-06-01T19:03:59.205Z,14.93
2018-06-01T19:06:26.685Z,15.03
2018-06-01T19:08:54.180Z,15.83
2018-06-01T19:11:21.699Z,15.00
2018-06-01T19:13:49.197Z,14.77
2018-06-01T19:16:16.706Z,14.67
2018-06-01T19:18:44.189Z,14.40
2018-06-01T19:21:11.690Z,14.97
2018-06-01T19:23:39.970Z,14.80
2018-06-01T19:26:08.227Z,14.40
2018-06-01T19:28:35.780Z,14.50
2018-06-01T19:31:04.033Z,13.50
2018-06-01T19:33:31.525Z,14.60
2018-06-01T19:35:59.795Z,14.23
2018-06-01T19:38:28.050Z,15.80
2018-06-01T19:40:55.542Z,15.90
2018-06-01T19:43:23.067Z,17.03
2018-06-01T19:45:50.593Z,18.63
2018-06-01T19:48:18.072Z,20.07
2018-06-01T19:50:45.585Z,22.47
2018-06-01T19:53:13.086Z,24.07
2018-06-01T19:55:40.585Z,25.30
2018-06-01T19:58:08.097Z,27.43
2018-06-01T20:00:35.597Z,30.90
2018-06-01T20:03:03.885Z,35.37
2018-06-01T20:05:31.382Z,33.57
2018-06-01T20:07:58.863Z,33.60
2018-06-01T20:10:27.111Z,39.40
2018-06-01T20:12:54.608Z,39.97
2018-06-01T20:15:22.193Z,39.00
2018-06-01T20:17:49.710Z,41.40
2018-06-01T20:20:17.185Z,40.73
2018-06-01T20:22:45.472Z,44.67
2018-06-01T20:25:12.961Z,42.93
2018-06-01T20:27:40.904Z,43.67
2018-06-01T20:30:08.393Z,42.93
2018-06-01T20:32:35.885Z,44.17
2018-06-01T20:35:03.415Z,43.87
2018-06-01T20:37:30.932Z,43.73
2018-06-01T20:39:58.438Z,43.67
2018-06-01T20:42:25.957Z,44.47
2018-06-01T20:44:53.494Z,44.17
2018-06-01T20:47:20.973Z,43.93
2018-06-01T20:49:48.474Z,42.83
2018-06-01T20:52:15.962Z,43.50
2018-06-01T20:54:43.463Z,43.20
2018-06-01T20:57:10.950Z,44.47
2018-06-01T20:59:39.199Z,43.73
2018-06-01T21:02:06.736Z,42.80
2018-06-01T21:04:34.276Z,42.53
2018-06-01T21:07:01.765Z,42.23
2018-06-01T21:09:29.305Z,42.50
2018-06-01T21:11:56.769Z,43.10
2018-06-01T21:14:24.249Z,43.77
2018-06-01T21:16:51.749Z,42.20
2018-06-01T21:19:19.274Z,44.87
2018-06-01T21:21:46.769Z,43.40
2018-06-01T21:24:14.281Z,44.23
2018-06-01T21:26:41.770Z,44.03
2018-06-01T21:29:09.260Z,44.07
2018-06-01T21:31:36.778Z,42.73
2018-06-01T21:34:05.042Z,43.57
2018-06-01T21:36:33.298Z,43.03
2018-06-01T21:39:00.816Z,44.20
2018-06-01T21:41:28.996Z,44.77
2018-06-01T21:43:56.481Z,45.40
2018-06-01T21:46:23.989Z,45.33
2018-06-01T21:48:51.483Z,44.90
2018-06-01T21:51:18.972Z,44.67
2018-06-01T21:53:46.476Z,41.07
2018-06-01T21:56:13.976Z,40.87
2018-06-01T21:58:42.229Z,51.60
2018-06-01T22:01:09.742Z,48.87
2018-06-01T22:03:37.263Z,50.03
2018-06-01T22:06:04.759Z,48.87
2018-06-01T22:08:32.266Z,48.33
2018-06-01T22:10:59.789Z,51.83
2018-06-01T22:13:27.267Z,50.50
2018-06-01T22:15:54.741Z,50.43
2018-06-01T22:18:22.245Z,47.67
2018-06-01T22:20:49.728Z,47.83
2018-06-01T22:23:17.248Z,47.93
2018-06-01T22:25:44.732Z,46.20
2018-06-01T22:28:12.266Z,47.23
2018-06-01T22:30:39.777Z,46.73
2018-06-01T22:33:07.282Z,46.90
2018-06-01T22:35:34.793Z,44.77
2018-06-01T22:38:03.527Z,47.17
2018-06-01T22:40:31.030Z,46.53
2018-06-01T22:42:58.519Z,45.57
2018-06-01T22:45:26.030Z,45.33
2018-06-01T22:47:53.506Z,45.03
2018-06-01T22:50:21.005Z,45.80
2018-06-01T22:52:48.567Z,44.90
2018-06-01T22:55:16.037Z,45.77
2018-06-01T22:57:43.547Z,44.10
2018-06-01T23:00:11.789Z,45.93
2018-06-01T23:02:39.291Z,44.70
2018-06-01T23:05:07.545Z,44.63
2018-06-01T23:07:35.033Z,46.10
2018-06-01T23:10:02.573Z,44.33
2018-06-01T23:12:30.831Z,47.13
2018-06-01T23:14:58.351Z,45.27
2018-06-01T23:17:25.834Z,46.37
2018-06-01T23:19:53.396Z,44.87
2018-06-01T23:22:20.898Z,46.57
2018-06-01T23:24:48.376Z,45.77
2018-06-01T23:27:15.889Z,47.13
2018-06-01T23:29:44.138Z,47.37
2018-06-01T23:32:11.636Z,44.53
2018-06-01T23:34:39.114Z,44.37
2018-06-01T23:37:06.621Z,45.30
2018-06-01T23:39:34.885Z,42.30
2018-06-01T23:42:02.406Z,43.00
2018-06-01T23:44:29.888Z,42.80
2018-06-01T23:46:57.390Z,40.17
2018-06-01T23:49:24.937Z,43.30
2018-06-01T23:51:52.518Z,42.77
2018-06-01T23:54:20.006Z,41.40
2018-06-01T23:56:47.509Z,44.07
2018-06-01T23:59:15.762Z,43.00
